Time;durP1;ratioP1;P1;durP2;ratioP2;P2;SDS_P1;SDS_P2;PMS_P1;PMS_P2;Temp;Humidity;BMP_temperature;BMP_pressure;BME280_temperature;BME280_humidity;BME280_pressure;Samples;Min_cycle;Max_cycle;Signal;HPM_P1;HPM_P2
2023/01/04 00:01:16;;;;;;;19.80;10.20;;;;;;;;;;5018330;28;20675;-78
2023/01/04 00:03:42;;;;;;;18.63;11.13;;;;;;;;;;5028377;28;20266;-78
2023/01/04 00:06:10;;;;;;;19.47;10.90;;;;;;;;;;5030427;28;20170;-78
2023/01/04 00:08:36;;;;;;;18.53;11.30;;;;;;;;;;5030520;28;20210;-78
2023/01/04 00:11:10;;;;;;;21.90;11.13;;;;;;;;;;5028127;28;20183;-78
2023/01/04 00:13:36;;;;;;;24.17;11.83;;;;;;;;;;5029915;28;20200;-78
2023/01/04 00:22:09;;;;;;;20.80;11.30;;;;;;;;;;5027528;28;20185;-78
2023/01/04 00:24:35;;;;;;;23.43;11.13;;;;;;;;;;5029180;28;20191;-78
2023/01/04 00:27:01;;;;;;;18.63;11.27;;;;;;;;;;5031265;28;20185;-79
2023/01/04 00:29:27;;;;;;;19.17;12.03;;;;;;;;;;5029272;28;20182;-79
2023/01/04 00:31:53;;;;;;;18.53;11.00;;;;;;;;;;5029086;28;20248;-79
2023/01/04 00:34:19;;;;;;;18.43;11.33;;;;;;;;;;5029069;28;20209;-78
2023/01/04 00:36:45;;;;;;;17.67;11.23;;;;;;;;;;5027293;28;20193;-79
2023/01/04 00:39:15;;;;;;;19.53;11.77;;;;;;;;;;5031557;28;20232;-79
2023/01/04 00:41:41;;;;;;;18.53;11.07;;;;;;;;;;5030016;28;20233;-78
2023/01/04 00:44:07;;;;;;;18.77;11.67;;;;;;;;;;5029317;28;20941;-79
2023/01/04 00:46:34;;;;;;;17.37;10.70;;;;;;;;;;5029378;28;20184;-78
2023/01/04 00:49:00;;;;;;;21.83;11.97;;;;;;;;;;5029526;28;20178;-79
2023/01/04 00:51:27;;;;;;;17.03;12.03;;;;;;;;;;5030148;28;20231;-79
2023/01/04 00:53:53;;;;;;;15.70;10.73;;;;;;;;;;5027053;28;20179;-79
2023/01/04 00:56:19;;;;;;;18.77;10.80;;;;;;;;;;5020772;28;20183;-79
2023/01/04 00:58:45;;;;;;;21.03;11.83;;;;;;;;;;5029081;28;20197;-80
2023/01/04 01:01:11;;;;;;;19.03;11.43;;;;;;;;;;5010600;28;20187;-79
2023/01/04 01:03:37;;;;;;;18.43;12.50;;;;;;;;;;5008545;28;20297;-79
2023/01/04 01:06:03;;;;;;;20.93;12.40;;;;;;;;;;5013557;28;20235;-78
2023/01/04 01:08:30;;;;;;;18.30;11.63;;;;;;;;;;5027519;28;20178;-78
2023/01/04 01:11:02;;;;;;;19.20;12.30;;;;;;;;;;5029585;28;20205;-79
2023/01/04 01:13:28;;;;;;;21.10;12.30;;;;;;;;;;5031441;28;20186;-80
2023/01/04 01:15:54;;;;;;;20.33;12.97;;;;;;;;;;5029091;28;20210;-78
2023/01/04 01:18:20;;;;;;;20.10;13.10;;;;;;;;;;5030632;28;20262;-78
2023/01/04 01:20:46;;;;;;;22.53;12.23;;;;;;;;;;5030547;28;20175;-79
2023/01/04 01:23:15;;;;;;;19.07;11.53;;;;;;;;;;5029890;28;20705;-78
2023/01/04 01:25:42;;;;;;;18.03;11.90;;;;;;;;;;5028660;28;20190;-79
2023/01/04 01:28:08;;;;;;;19.53;12.33;;;;;;;;;;5028551;28;20584;-79
2023/01/04 01:30:34;;;;;;;18.93;12.60;;;;;;;;;;5026417;28;20284;-79
2023/01/04 01:33:00;;;;;;;20.33;11.87;;;;;;;;;;5029021;28;20181;-78
2023/01/04 01:35:26;;;;;;;20.37;13.33;;;;;;;;;;5029132;28;20202;-79
2023/01/04 01:37:52;;;;;;;19.23;12.07;;;;;;;;;;5029099;28;20655;-80
2023/01/04 01:40:18;;;;;;;21.17;12.47;;;;;;;;;;5029245;28;20183;-79
2023/01/04 01:42:44;;;;;;;15.03;10.90;;;;;;;;;;5028213;28;20179;-77
2023/01/04 01:45:22;;;;;;;20.60;12.87;;;;;;;;;;5032187;28;20186;-79
2023/01/04 01:47:49;;;;;;;23.60;12.73;;;;;;;;;;5028493;28;20213;-77
2023/01/04 01:50:18;;;;;;;20.00;12.57;;;;;;;;;;5031117;28;20214;-78
2023/01/04 01:52:44;;;;;;;18.30;12.07;;;;;;;;;;4996436;28;20982;-77
2023/01/04 01:55:11;;;;;;;19.77;13.13;;;;;;;;;;5030026;28;20243;-78
2023/01/04 01:57:38;;;;;;;20.17;11.93;;;;;;;;;;5033450;28;20220;-77
2023/01/04 02:00:06;;;;;;;18.10;12.63;;;;;;;;;;5017691;28;20186;-77
2023/01/04 02:02:33;;;;;;;20.83;13.20;;;;;;;;;;5021813;28;20185;-77
2023/01/04 02:04:59;;;;;;;20.13;12.83;;;;;;;;;;5023699;28;20186;-77
2023/01/04 02:07:26;;;;;;;23.57;13.23;;;;;;;;;;5022486;28;20705;-77
2023/01/04 02:09:52;;;;;;;21.07;12.43;;;;;;;;;;5021141;28;20594;-77
2023/01/04 02:12:18;;;;;;;21.03;12.93;;;;;;;;;;5029834;28;20269;-77
2023/01/04 02:14:46;;;;;;;16.67;12.27;;;;;;;;;;5028774;28;20249;-78
2023/01/04 02:17:19;;;;;;;24.60;14.27;;;;;;;;;;5029700;28;20190;-78
2023/01/04 02:19:58;;;;;;;21.53;14.40;;;;;;;;;;5031718;28;20183;-77
2023/01/04 02:22:43;;;;;;;21.80;13.40;;;;;;;;;;5032832;28;20218;-77
2023/01/04 02:25:18;;;;;;;24.17;14.60;;;;;;;;;;5023644;28;20564;-77
2023/01/04 02:27:53;;;;;;;21.80;15.33;;;;;;;;;;5018999;28;20273;-77
2023/01/04 02:30:38;;;;;;;26.00;15.63;;;;;;;;;;5029560;28;20761;-77
2023/01/04 02:33:03;;;;;;;24.03;14.83;;;;;;;;;;5030755;28;20178;-77
2023/01/04 02:35:50;;;;;;;24.50;15.47;;;;;;;;;;5027294;28;20567;-77
2023/01/04 02:38:28;;;;;;;23.53;15.47;;;;;;;;;;5028919;28;20241;-77
2023/01/04 02:41:12;;;;;;;27.67;16.33;;;;;;;;;;5029128;28;20221;-78
2023/01/04 02:46:34;;;;;;;23.33;14.50;;;;;;;;;;5028976;28;20274;-77
2023/01/04 02:51:46;;;;;;;25.97;16.03;;;;;;;;;;5015549;28;27039;-77
2023/01/04 02:54:18;;;;;;;23.13;16.37;;;;;;;;;;5026950;28;20207;-77
2023/01/04 02:56:53;;;;;;;32.90;16.50;;;;;;;;;;5002152;28;20198;-78
2023/01/04 02:59:22;;;;;;;23.27;17.07;;;;;;;;;;5009923;28;20186;-77
2023/01/04 03:08:22;;;;;;;24.63;16.63;;;;;;;;;;5044337;28;20186;-77
2023/01/04 03:12:30;;;;;;;24.53;17.30;;;;;;;;;;5038096;28;20244;-77
2023/01/04 03:13:53;;;;;;;32.70;18.57;;;;;;;;;;5039260;28;20270;-78
2023/01/04 03:16:21;;;;;;;28.13;17.93;;;;;;;;;;5040516;28;20198;-77
2023/01/04 03:18:50;;;;;;;28.60;18.73;;;;;;;;;;5037700;28;20995;-78
2023/01/04 03:21:17;;;;;;;27.07;18.30;;;;;;;;;;5019520;28;20178;-78
2023/01/04 03:49:27;;;;;;;29.43;19.10;;;;;;;;;;5024659;28;20240;-78
2023/01/04 03:51:55;;;;;;;33.80;21.10;;;;;;;;;;5026001;28;20273;-78
2023/01/04 03:54:36;;;;;;;27.10;18.07;;;;;;;;;;5032024;28;20240;-77
2023/01/04 03:57:02;;;;;;;26.67;18.27;;;;;;;;;;5029657;28;20650;-77
2023/01/04 03:59:28;;;;;;;30.57;19.40;;;;;;;;;;5031182;28;20170;-77
2023/01/04 04:01:54;;;;;;;30.73;20.57;;;;;;;;;;5030265;28;20178;-77
2023/01/04 04:09:49;;;;;;;29.67;20.23;;;;;;;;;;5030494;28;20200;-77
2023/01/04 04:12:15;;;;;;;31.20;20.40;;;;;;;;;;5032219;28;20628;-78
2023/01/04 04:14:41;;;;;;;34.27;21.73;;;;;;;;;;5020581;28;20205;-78
2023/01/04 04:17:07;;;;;;;29.87;19.77;;;;;;;;;;5030554;28;20197;-77
2023/01/04 04:19:33;;;;;;;29.80;19.97;;;;;;;;;;5029213;28;20269;-78
2023/01/04 04:21:59;;;;;;;28.20;20.93;;;;;;;;;;5027079;28;20547;-77
2023/01/04 04:24:26;;;;;;;30.70;20.00;;;;;;;;;;5031780;28;20187;-77
2023/01/04 04:26:54;;;;;;;28.30;20.50;;;;;;;;;;5016162;28;20277;-77
2023/01/04 04:29:20;;;;;;;31.97;22.07;;;;;;;;;;5014098;28;20195;-78
2023/01/04 04:31:46;;;;;;;32.90;21.80;;;;;;;;;;5018678;28;20226;-78
2023/01/04 04:34:12;;;;;;;35.53;22.50;;;;;;;;;;5026453;28;20192;-77
2023/01/04 04:36:38;;;;;;;32.33;21.97;;;;;;;;;;5029092;28;20182;-78
2023/01/04 04:39:04;;;;;;;29.97;22.27;;;;;;;;;;5029366;28;20174;-77
2023/01/04 04:41:40;;;;;;;35.07;22.73;;;;;;;;;;5030998;28;20635;-77
2023/01/04 04:44:07;;;;;;;30.33;21.70;;;;;;;;;;5033205;28;20247;-78
2023/01/04 04:46:33;;;;;;;30.67;21.63;;;;;;;;;;5032945;28;20186;-77
2023/01/04 04:48:59;;;;;;;32.87;21.83;;;;;;;;;;5032238;28;20183;-77
2023/01/04 04:51:25;;;;;;;34.00;22.70;;;;;;;;;;5034460;28;20267;-77
2023/01/04 04:53:51;;;;;;;31.83;22.00;;;;;;;;;;5033175;28;20217;-77
2023/01/04 04:56:17;;;;;;;30.57;21.50;;;;;;;;;;5032872;28;20538;-77
2023/01/04 04:58:43;;;;;;;27.97;19.67;;;;;;;;;;5032908;28;20193;-77
2023/01/04 05:01:09;;;;;;;38.13;22.73;;;;;;;;;;5033623;28;20189;-77
2023/01/04 05:03:35;;;;;;;29.80;21.23;;;;;;;;;;5034773;28;20261;-78
2023/01/04 05:06:01;;;;;;;35.17;22.70;;;;;;;;;;5033694;28;20230;-77
2023/01/04 05:08:27;;;;;;;32.57;23.03;;;;;;;;;;5032986;28;20193;-77
2023/01/04 05:10:53;;;;;;;37.17;22.23;;;;;;;;;;5033133;28;20292;-77
2023/01/04 05:13:20;;;;;;;28.90;20.50;;;;;;;;;;5031557;28;20699;-77
2023/01/04 05:15:47;;;;;;;29.00;21.00;;;;;;;;;;5032610;28;20228;-78
2023/01/04 05:18:14;;;;;;;33.13;21.77;;;;;;;;;;5033823;28;20189;-78
2023/01/04 05:20:40;;;;;;;33.97;22.20;;;;;;;;;;5031663;28;20679;-77
2023/01/04 05:23:06;;;;;;;32.87;21.37;;;;;;;;;;5029603;28;20215;-77
2023/01/04 05:25:32;;;;;;;32.50;22.13;;;;;;;;;;5020788;28;20193;-77
2023/01/04 05:27:58;;;;;;;32.43;20.87;;;;;;;;;;5030336;28;20182;-77
2023/01/04 05:33:09;;;;;;;30.33;21.20;;;;;;;;;;5034753;28;20223;-77
2023/01/04 05:35:35;;;;;;;33.80;21.13;;;;;;;;;;5030795;28;20217;-77
2023/01/04 05:38:01;;;;;;;37.37;22.77;;;;;;;;;;5032117;28;20561;-77
2023/01/04 05:40:27;;;;;;;38.23;23.57;;;;;;;;;;5026093;28;20654;-78
2023/01/04 05:42:53;;;;;;;37.13;23.73;;;;;;;;;;5031362;28;20185;-77
2023/01/04 05:45:20;;;;;;;33.33;21.67;;;;;;;;;;5029599;28;20647;-77
2023/01/04 05:47:49;;;;;;;30.63;21.37;;;;;;;;;;5025929;28;20711;-77
2023/01/04 05:50:15;;;;;;;28.77;20.10;;;;;;;;;;5034039;28;20211;-77
2023/01/04 05:52:41;;;;;;;28.90;19.70;;;;;;;;;;5031844;28;20296;-78
2023/01/04 05:55:07;;;;;;;33.93;20.00;;;;;;;;;;5029988;28;20310;-78
2023/01/04 05:57:33;;;;;;;29.90;20.07;;;;;;;;;;5034528;28;20182;-79
2023/01/04 05:59:59;;;;;;;30.53;20.27;;;;;;;;;;5031543;28;20185;-77
2023/01/04 06:02:27;;;;;;;31.77;21.10;;;;;;;;;;5030601;28;20220;-78
2023/01/04 06:04:53;;;;;;;38.43;21.83;;;;;;;;;;5031666;28;20201;-78
2023/01/04 06:07:19;;;;;;;36.57;22.80;;;;;;;;;;5030967;28;20183;-78
2023/01/04 06:09:45;;;;;;;34.23;22.47;;;;;;;;;;5033278;28;20188;-78
2023/01/04 06:12:11;;;;;;;34.37;21.63;;;;;;;;;;5031805;28;20182;-78
2023/01/04 06:14:37;;;;;;;34.50;22.47;;;;;;;;;;5013408;28;20244;-78
2023/01/04 06:17:04;;;;;;;34.57;21.33;;;;;;;;;;5023930;28;20330;-78
2023/01/04 06:19:30;;;;;;;36.17;22.53;;;;;;;;;;5021414;28;20265;-78
2023/01/04 06:21:56;;;;;;;34.03;20.70;;;;;;;;;;5029151;28;20665;-79
2023/01/04 06:24:22;;;;;;;33.30;19.60;;;;;;;;;;5030778;28;20226;-79
2023/01/04 06:26:48;;;;;;;33.37;21.13;;;;;;;;;;5027089;28;20359;-78
2023/01/04 06:29:14;;;;;;;34.03;21.97;;;;;;;;;;5028778;28;20677;-78
2023/01/04 06:31:40;;;;;;;33.23;21.13;;;;;;;;;;5030397;28;20620;-78
2023/01/04 06:34:06;;;;;;;39.07;23.67;;;;;;;;;;5027341;28;20190;-78
2023/01/04 06:36:32;;;;;;;51.87;25.77;;;;;;;;;;5028741;28;20904;-78
2023/01/04 06:38:59;;;;;;;45.00;22.80;;;;;;;;;;5028359;28;20247;-78
2023/01/04 06:41:25;;;;;;;42.83;23.37;;;;;;;;;;5028170;28;20201;-78
2023/01/04 06:43:51;;;;;;;48.27;25.30;;;;;;;;;;5028045;28;20194;-78
2023/01/04 06:46:17;;;;;;;37.90;22.80;;;;;;;;;;5028441;28;20280;-78
2023/01/04 06:48:43;;;;;;;48.40;26.30;;;;;;;;;;5030354;28;20243;-77
2023/01/04 06:51:10;;;;;;;37.57;23.60;;;;;;;;;;5028853;28;20174;-79
2023/01/04 06:53:36;;;;;;;39.33;25.07;;;;;;;;;;5028324;28;20216;-78
2023/01/04 06:56:02;;;;;;;37.10;24.67;;;;;;;;;;5027371;28;20213;-79
2023/01/04 06:58:28;;;;;;;38.83;25.10;;;;;;;;;;5029864;28;20189;-79
2023/01/04 07:00:55;;;;;;;35.97;23.70;;;;;;;;;;5028853;28;20182;-80
2023/01/04 07:03:21;;;;;;;38.30;24.10;;;;;;;;;;5028800;28;20213;-79
2023/01/04 07:05:48;;;;;;;39.03;24.00;;;;;;;;;;5026221;28;20192;-78
2023/01/04 07:08:14;;;;;;;40.27;24.63;;;;;;;;;;5027978;28;20212;-78
2023/01/04 07:10:40;;;;;;;34.87;24.23;;;;;;;;;;5028554;28;20193;-79
2023/01/04 07:13:07;;;;;;;38.67;24.13;;;;;;;;;;5028975;28;20281;-79
2023/01/04 07:15:33;;;;;;;40.40;25.97;;;;;;;;;;5030019;28;20214;-79
2023/01/04 07:17:59;;;;;;;35.43;25.47;;;;;;;;;;5026215;28;20194;-79
2023/01/04 07:20:25;;;;;;;38.30;26.33;;;;;;;;;;5027554;28;20235;-80
2023/01/04 07:22:51;;;;;;;38.90;25.97;;;;;;;;;;5027579;28;20194;-79
2023/01/04 07:25:17;;;;;;;45.40;27.67;;;;;;;;;;5027708;28;20646;-80
2023/01/04 07:27:44;;;;;;;40.73;27.77;;;;;;;;;;5027665;28;20228;-79
2023/01/04 07:30:10;;;;;;;35.20;25.17;;;;;;;;;;5027760;28;20653;-79
2023/01/04 07:32:36;;;;;;;41.77;26.20;;;;;;;;;;5027439;28;20181;-78
2023/01/04 07:35:02;;;;;;;43.27;27.07;;;;;;;;;;5026410;28;20279;-79
2023/01/04 07:37:28;;;;;;;44.57;27.73;;;;;;;;;;5027347;28;20614;-78
2023/01/04 07:39:54;;;;;;;42.33;27.40;;;;;;;;;;5027621;28;20201;-80
2023/01/04 07:42:20;;;;;;;42.67;27.20;;;;;;;;;;5026912;28;20189;-79
2023/01/04 07:44:46;;;;;;;37.27;25.27;;;;;;;;;;5027917;28;20220;-80
2023/01/04 07:47:12;;;;;;;47.40;28.77;;;;;;;;;;5027305;28;20189;-79
2023/01/04 07:49:38;;;;;;;42.07;26.77;;;;;;;;;;5028013;28;20241;-79
2023/01/04 07:52:04;;;;;;;42.17;26.20;;;;;;;;;;5028140;28;20193;-79
2023/01/04 07:54:30;;;;;;;43.63;26.57;;;;;;;;;;5028897;28;20204;-79
2023/01/04 07:56:56;;;;;;;44.43;27.93;;;;;;;;;;5026751;28;20196;-80
2023/01/04 07:59:23;;;;;;;39.47;27.10;;;;;;;;;;5027290;28;20194;-78
2023/01/04 08:01:49;;;;;;;43.60;29.37;;;;;;;;;;5026993;28;20190;-80
2023/01/04 08:04:16;;;;;;;41.00;29.00;;;;;;;;;;5026160;28;20200;-79
2023/01/04 08:06:42;;;;;;;48.90;32.10;;;;;;;;;;5026036;28;21296;-79
2023/01/04 08:09:10;;;;;;;44.83;30.07;;;;;;;;;;5025417;28;20188;-80
2023/01/04 08:11:36;;;;;;;44.57;31.60;;;;;;;;;;5027067;28;20193;-79
2023/01/04 08:14:02;;;;;;;49.53;33.80;;;;;;;;;;5024770;28;20568;-79
2023/01/04 08:16:32;;;;;;;53.53;35.10;;;;;;;;;;5025740;28;20279;-77
2023/01/04 08:18:59;;;;;;;51.47;32.83;;;;;;;;;;5027833;28;20181;-77
2023/01/04 08:21:26;;;;;;;53.63;35.17;;;;;;;;;;5025840;28;20276;-77
2023/01/04 08:23:52;;;;;;;48.50;34.03;;;;;;;;;;5026095;28;20190;-78
2023/01/04 08:26:20;;;;;;;53.00;33.80;;;;;;;;;;5025679;28;20661;-78
2023/01/04 08:28:46;;;;;;;52.27;35.40;;;;;;;;;;5025419;28;20650;-78
2023/01/04 08:31:21;;;;;;;45.03;32.90;;;;;;;;;;5025728;28;20226;-79
2023/01/04 08:33:48;;;;;;;49.57;33.63;;;;;;;;;;5026048;28;20178;-78
2023/01/04 08:36:19;;;;;;;42.03;31.07;;;;;;;;;;5026085;28;20950;-78
2023/01/04 08:38:49;;;;;;;44.43;31.03;;;;;;;;;;5021930;28;20277;-77
2023/01/04 08:41:15;;;;;;;49.20;32.30;;;;;;;;;;5021905;28;20656;-77
2023/01/04 08:43:41;;;;;;;44.03;30.87;;;;;;;;;;5022452;28;20179;-80
2023/01/04 08:46:07;;;;;;;46.07;31.60;;;;;;;;;;5024430;28;20255;-78
2023/01/04 08:48:34;;;;;;;44.33;32.43;;;;;;;;;;5041984;28;20228;-78
2023/01/04 08:51:01;;;;;;;47.43;33.33;;;;;;;;;;5024843;28;20548;-79
2023/01/04 08:53:27;;;;;;;50.73;33.60;;;;;;;;;;5024603;28;20278;-78
2023/01/04 08:55:53;;;;;;;50.20;34.00;;;;;;;;;;5026408;28;20206;-79
2023/01/04 08:58:19;;;;;;;48.47;33.50;;;;;;;;;;5025960;28;20214;-78
2023/01/04 09:00:46;;;;;;;40.67;31.83;;;;;;;;;;5026355;28;20170;-77
2023/01/04 09:03:14;;;;;;;47.47;31.10;;;;;;;;;;5026177;28;20570;-80
2023/01/04 09:05:40;;;;;;;46.77;32.93;;;;;;;;;;5022563;28;20202;-78
2023/01/04 09:08:06;;;;;;;43.97;29.23;;;;;;;;;;5024191;28;21398;-78
2023/01/04 09:10:33;;;;;;;46.27;29.80;;;;;;;;;;5024298;28;20874;-79
2023/01/04 09:12:59;;;;;;;40.33;28.33;;;;;;;;;;5026027;28;20178;-80
2023/01/04 09:15:25;;;;;;;39.73;28.90;;;;;;;;;;5026478;28;20217;-78
2023/01/04 09:17:51;;;;;;;38.90;27.20;;;;;;;;;;5026369;28;20186;-78
2023/01/04 09:20:17;;;;;;;38.07;26.70;;;;;;;;;;5027109;28;20183;-80
2023/01/04 09:22:43;;;;;;;37.47;25.40;;;;;;;;;;5027061;28;20182;-77
2023/01/04 09:25:09;;;;;;;33.77;25.70;;;;;;;;;;5024190;28;20250;-78
2023/01/04 09:27:38;;;;;;;37.87;25.73;;;;;;;;;;5027957;28;20215;-80
2023/01/04 09:30:05;;;;;;;30.97;23.63;;;;;;;;;;5029401;28;20206;-79
2023/01/04 09:32:30;;;;;;;33.20;23.17;;;;;;;;;;5028450;28;20183;-80
2023/01/04 09:34:56;;;;;;;32.10;23.70;;;;;;;;;;5029692;28;20670;-78
2023/01/04 09:37:23;;;;;;;30.23;22.43;;;;;;;;;;5029012;28;20269;-80
2023/01/04 09:39:49;;;;;;;31.13;22.43;;;;;;;;;;5028538;28;20183;-79
2023/01/04 09:42:24;;;;;;;28.00;21.73;;;;;;;;;;5032254;28;20179;-80
2023/01/04 09:44:51;;;;;;;29.83;21.47;;;;;;;;;;5028856;28;20218;-80
2023/01/04 09:47:20;;;;;;;24.17;20.10;;;;;;;;;;5024118;28;20198;-79
2023/01/04 09:50:13;;;;;;;25.80;19.07;;;;;;;;;;5032576;28;20268;-80
2023/01/04 09:52:57;;;;;;;28.33;19.53;;;;;;;;;;5030513;28;20299;-80
2023/01/04 09:55:27;;;;;;;25.10;17.90;;;;;;;;;;5029742;28;20209;-79
2023/01/04 09:57:57;;;;;;;27.00;18.37;;;;;;;;;;5021347;28;20273;-79
2023/01/04 10:00:23;;;;;;;22.90;17.93;;;;;;;;;;5023790;28;20182;-80
2023/01/04 10:02:55;;;;;;;25.00;17.93;;;;;;;;;;5015643;28;20297;-78
2023/01/04 10:05:22;;;;;;;20.93;17.10;;;;;;;;;;5012203;28;20194;-78
2023/01/04 10:07:49;;;;;;;25.83;17.83;;;;;;;;;;5020115;28;20639;-78
2023/01/04 10:10:16;;;;;;;21.80;17.40;;;;;;;;;;5030136;28;20270;-79
2023/01/04 10:12:42;;;;;;;24.70;18.43;;;;;;;;;;5030108;28;20209;-78
2023/01/04 10:15:15;;;;;;;26.60;19.70;;;;;;;;;;5027975;28;20675;-78
2023/01/04 10:17:47;;;;;;;30.93;19.77;;;;;;;;;;5028308;28;20214;-78
2023/01/04 10:20:16;;;;;;;28.00;19.63;;;;;;;;;;5028581;28;20189;-77
2023/01/04 10:22:52;;;;;;;25.43;19.20;;;;;;;;;;5028192;28;20855;-79
2023/01/04 10:25:38;;;;;;;25.97;18.67;;;;;;;;;;5028093;28;20247;-79
2023/01/04 10:28:10;;;;;;;26.47;18.10;;;;;;;;;;5027655;28;20214;-77
2023/01/04 10:30:42;;;;;;;28.87;19.93;;;;;;;;;;5029431;28;20638;-79
2023/01/04 10:33:08;;;;;;;23.57;17.80;;;;;;;;;;5028285;28;20188;-79
2023/01/04 10:35:35;;;;;;;26.33;17.80;;;;;;;;;;5027708;28;20209;-77
2023/01/04 10:38:03;;;;;;;25.37;16.93;;;;;;;;;;5027964;28;20185;-77
2023/01/04 10:40:31;;;;;;;24.27;16.30;;;;;;;;;;5027696;28;20235;-78
2023/01/04 10:43:11;;;;;;;19.93;15.90;;;;;;;;;;5029139;28;20174;-77
2023/01/04 10:45:37;;;;;;;24.63;16.73;;;;;;;;;;5028671;28;20193;-78
2023/01/04 10:48:12;;;;;;;22.97;15.83;;;;;;;;;;5028540;28;20643;-79
2023/01/04 10:50:41;;;;;;;22.80;16.37;;;;;;;;;;5027584;28;20185;-79
2023/01/04 10:53:07;;;;;;;22.17;16.33;;;;;;;;;;5027339;28;20181;-79
2023/01/04 10:55:52;;;;;;;23.10;15.57;;;;;;;;;;5027989;28;20337;-78
2023/01/04 10:58:35;;;;;;;21.40;14.40;;;;;;;;;;5026046;28;20554;-78
2023/01/04 11:01:24;;;;;;;21.53;15.63;;;;;;;;;;5027481;28;20197;-78
2023/01/04 11:04:00;;;;;;;17.90;14.57;;;;;;;;;;5028956;28;20231;-78
2023/01/04 11:06:28;;;;;;;18.03;14.53;;;;;;;;;;5027853;28;20256;-80
2023/01/04 11:09:08;;;;;;;23.07;16.07;;;;;;;;;;5027473;28;20194;-79
2023/01/04 11:11:44;;;;;;;23.97;17.33;;;;;;;;;;5027555;28;20602;-79
2023/01/04 11:14:11;;;;;;;25.23;17.80;;;;;;;;;;5025688;28;20185;-79
2023/01/04 11:16:39;;;;;;;26.23;18.13;;;;;;;;;;5027108;28;20292;-78
2023/01/04 11:19:05;;;;;;;28.27;17.87;;;;;;;;;;5029117;28;20544;-77
2023/01/04 11:21:35;;;;;;;23.53;17.47;;;;;;;;;;5028587;28;20182;-78
2023/01/04 11:24:03;;;;;;;26.07;17.47;;;;;;;;;;5027516;28;20202;-79
2023/01/04 11:26:34;;;;;;;20.67;15.40;;;;;;;;;;5026677;28;20669;-79
2023/01/04 11:29:03;;;;;;;23.30;15.23;;;;;;;;;;5026676;28;20186;-78
2023/01/04 11:31:50;;;;;;;20.47;14.47;;;;;;;;;;5027109;28;20748;-79
2023/01/04 11:34:16;;;;;;;20.30;14.27;;;;;;;;;;5027574;28;20195;-80
2023/01/04 11:36:44;;;;;;;17.97;14.83;;;;;;;;;;5027781;28;21004;-78
2023/01/04 11:39:21;;;;;;;19.13;13.57;;;;;;;;;;5027317;28;20684;-78
2023/01/04 11:41:57;;;;;;;17.63;13.90;;;;;;;;;;5027536;28;20198;-80
2023/01/04 11:44:24;;;;;;;18.47;14.20;;;;;;;;;;5024636;28;20183;-79
2023/01/04 11:47:05;;;;;;;19.87;15.30;;;;;;;;;;5027654;28;20186;-79
2023/01/04 11:49:36;;;;;;;17.97;14.10;;;;;;;;;;5022959;28;20534;-79
2023/01/04 11:52:02;;;;;;;20.80;14.97;;;;;;;;;;5026657;28;20181;-79
2023/01/04 11:54:29;;;;;;;20.20;15.00;;;;;;;;;;5027332;28;20178;-77
2023/01/04 11:56:58;;;;;;;22.23;15.07;;;;;;;;;;5026665;28;20186;-78
2023/01/04 11:59:24;;;;;;;19.03;14.90;;;;;;;;;;5027120;28;20178;-79
2023/01/04 12:01:51;;;;;;;20.87;15.73;;;;;;;;;;5027025;28;20277;-79
2023/01/04 12:04:25;;;;;;;23.10;17.13;;;;;;;;;;5026500;28;20209;-78
2023/01/04 12:07:06;;;;;;;20.50;16.47;;;;;;;;;;5028487;28;20177;-79
2023/01/04 12:09:32;;;;;;;23.27;18.30;;;;;;;;;;5027762;28;20178;-78
2023/01/04 12:11:59;;;;;;;29.83;19.57;;;;;;;;;;5026476;28;20194;-77
2023/01/04 12:14:25;;;;;;;25.10;20.17;;;;;;;;;;5026905;28;20193;-79
2023/01/04 12:16:57;;;;;;;30.27;21.30;;;;;;;;;;5026936;28;20190;-78
2023/01/04 12:19:23;;;;;;;29.30;21.00;;;;;;;;;;5026203;28;20186;-80
2023/01/04 12:21:51;;;;;;;30.03;21.33;;;;;;;;;;5029226;28;20537;-77
2023/01/04 12:24:22;;;;;;;28.20;21.03;;;;;;;;;;5026481;28;20195;-78
2023/01/04 12:26:48;;;;;;;28.70;21.10;;;;;;;;;;5026944;28;20421;-77
2023/01/04 12:29:23;;;;;;;30.23;21.73;;;;;;;;;;5025833;28;20191;-77
2023/01/04 12:32:13;;;;;;;27.57;20.00;;;;;;;;;;5026470;28;20225;-78
2023/01/04 12:34:43;;;;;;;30.00;19.53;;;;;;;;;;5027132;28;20206;-80
2023/01/04 12:37:10;;;;;;;30.60;19.70;;;;;;;;;;5025125;28;20182;-79
2023/01/04 12:39:42;;;;;;;28.87;20.30;;;;;;;;;;5027637;28;20233;-79
2023/01/04 12:42:10;;;;;;;29.60;20.57;;;;;;;;;;5025448;28;20643;-78
2023/01/04 12:44:36;;;;;;;29.70;21.17;;;;;;;;;;5026613;28;20214;-79
2023/01/04 12:49:55;;;;;;;29.37;20.83;;;;;;;;;;5024118;28;20706;-79
2023/01/04 12:52:21;;;;;;;28.60;21.10;;;;;;;;;;5024120;28;20284;-77
2023/01/04 12:54:53;;;;;;;29.33;20.60;;;;;;;;;;5026747;28;20725;-77
2023/01/04 12:57:23;;;;;;;30.93;21.50;;;;;;;;;;5025641;28;20321;-76
2023/01/04 12:59:54;;;;;;;28.33;21.70;;;;;;;;;;5024152;28;20189;-79
2023/01/04 13:02:22;;;;;;;29.50;20.73;;;;;;;;;;5025708;28;20282;-79
2023/01/04 13:04:50;;;;;;;30.83;22.03;;;;;;;;;;5029502;28;20263;-78
2023/01/04 13:07:18;;;;;;;29.67;21.93;;;;;;;;;;5011300;28;20312;-79
2023/01/04 13:09:49;;;;;;;30.37;21.07;;;;;;;;;;5030091;28;20279;-77
2023/01/04 13:12:21;;;;;;;33.10;21.60;;;;;;;;;;5011356;28;20198;-77
2023/01/04 13:14:50;;;;;;;30.07;21.20;;;;;;;;;;5028686;28;20301;-79
2023/01/04 13:17:25;;;;;;;29.70;21.47;;;;;;;;;;5028525;28;20237;-79
2023/01/04 13:19:51;;;;;;;29.97;21.00;;;;;;;;;;5013022;28;20200;-77
2023/01/04 13:22:20;;;;;;;31.60;21.30;;;;;;;;;;5028604;28;20301;-77
2023/01/04 13:24:47;;;;;;;28.53;19.30;;;;;;;;;;5029714;28;20281;-77
2023/01/04 13:27:18;;;;;;;30.10;20.40;;;;;;;;;;5028823;28;20209;-76
2023/01/04 13:29:44;;;;;;;26.43;19.53;;;;;;;;;;5029159;28;20213;-77
2023/01/04 13:32:16;;;;;;;29.00;19.73;;;;;;;;;;5028748;28;20272;-78
2023/01/04 13:34:58;;;;;;;27.07;18.73;;;;;;;;;;5029079;28;21001;-77
2023/01/04 13:37:24;;;;;;;28.47;19.90;;;;;;;;;;5029266;28;20281;-77
2023/01/04 13:39:52;;;;;;;29.23;22.23;;;;;;;;;;5030580;28;20309;-78
2023/01/04 13:42:22;;;;;;;42.37;28.67;;;;;;;;;;5029155;28;20655;-77
2023/01/04 13:44:54;;;;;;;30.57;19.83;;;;;;;;;;5029622;28;20649;-79
2023/01/04 13:47:20;;;;;;;27.83;18.77;;;;;;;;;;5030363;28;20198;-78
2023/01/04 13:49:46;;;;;;;24.67;18.57;;;;;;;;;;5029840;28;20248;-77
2023/01/04 13:52:26;;;;;;;27.20;19.47;;;;;;;;;;5029946;28;20189;-77
2023/01/04 13:54:52;;;;;;;29.33;19.27;;;;;;;;;;5030860;28;20206;-77
2023/01/04 13:57:20;;;;;;;23.93;17.33;;;;;;;;;;5030356;28;20248;-78
2023/01/04 13:59:50;;;;;;;23.77;16.80;;;;;;;;;;5030044;28;20213;-77
2023/01/04 14:02:17;;;;;;;26.97;17.60;;;;;;;;;;5028736;28;20243;-78
2023/01/04 14:04:44;;;;;;;23.40;16.57;;;;;;;;;;5029325;28;20205;-77
2023/01/04 14:07:10;;;;;;;22.83;15.73;;;;;;;;;;5029044;28;20192;-79
2023/01/04 14:09:44;;;;;;;22.47;16.60;;;;;;;;;;5030099;28;20185;-79
2023/01/04 14:12:14;;;;;;;22.00;16.50;;;;;;;;;;5028578;28;20344;-78
2023/01/04 14:14:46;;;;;;;25.13;16.80;;;;;;;;;;5029791;28;20644;-79
2023/01/04 14:17:12;;;;;;;23.50;16.50;;;;;;;;;;5030395;28;20339;-78
2023/01/04 14:19:41;;;;;;;25.07;17.77;;;;;;;;;;5028638;28;20655;-79
2023/01/04 14:22:19;;;;;;;24.03;16.30;;;;;;;;;;5029504;28;20178;-79
2023/01/04 14:24:45;;;;;;;24.00;16.70;;;;;;;;;;5029910;28;20182;-78
2023/01/04 14:27:30;;;;;;;21.87;15.43;;;;;;;;;;5028066;28;20194;-77
2023/01/04 14:29:56;;;;;;;23.23;17.10;;;;;;;;;;5026610;28;20846;-78
2023/01/04 14:32:22;;;;;;;27.20;19.23;;;;;;;;;;5027525;28;20280;-78
2023/01/04 14:34:48;;;;;;;22.70;14.70;;;;;;;;;;5026640;28;20261;-77
2023/01/04 14:37:15;;;;;;;22.80;15.00;;;;;;;;;;5026201;28;20190;-78
2023/01/04 14:39:41;;;;;;;20.83;14.90;;;;;;;;;;5028903;28;20232;-79
2023/01/04 14:42:26;;;;;;;19.23;14.13;;;;;;;;;;5027179;28;20647;-79
2023/01/04 14:44:52;;;;;;;23.70;15.20;;;;;;;;;;5028497;28;20237;-79
2023/01/04 14:47:18;;;;;;;21.57;15.47;;;;;;;;;;5027084;28;20187;-79
2023/01/04 14:49:44;;;;;;;25.17;15.60;;;;;;;;;;5030227;28;20251;-79
2023/01/04 14:52:12;;;;;;;26.27;19.07;;;;;;;;;;5025503;28;20228;-79
2023/01/04 14:54:39;;;;;;;23.80;17.80;;;;;;;;;;5029635;28;20213;-78
2023/01/04 14:57:06;;;;;;;22.27;15.80;;;;;;;;;;5027351;28;20217;-78
2023/01/04 14:59:33;;;;;;;24.73;15.77;;;;;;;;;;5028703;28;20277;-79
2023/01/04 15:02:01;;;;;;;21.33;15.87;;;;;;;;;;5029286;28;20206;-78
2023/01/04 15:04:28;;;;;;;22.27;15.57;;;;;;;;;;5027082;28;20269;-80
2023/01/04 15:06:58;;;;;;;21.30;15.77;;;;;;;;;;5025737;28;20319;-79
2023/01/04 15:09:25;;;;;;;27.33;18.63;;;;;;;;;;5026467;28;20656;-77
2023/01/04 15:11:53;;;;;;;51.20;34.60;;;;;;;;;;5026642;28;20198;-77
2023/01/04 15:14:21;;;;;;;27.50;17.23;;;;;;;;;;5026345;28;20539;-77
2023/01/04 15:16:48;;;;;;;23.37;16.37;;;;;;;;;;5025762;28;20903;-78
2023/01/04 15:19:15;;;;;;;23.00;15.83;;;;;;;;;;5023325;28;20321;-77